Time;durP1;ratioP1;P1;durP2;ratioP2;P2;SDS_P1;SDS_P2;PMS_P1;PMS_P2;Temp;Humidity;BMP_temperature;BMP_pressure;BME280_temperature;BME280_humidity;BME280_pressure;Samples;Min_cycle;Max_cycle;Signal;HPM_P1;HPM_P2
2021/11/10 00:00:10;;;;;;;;;;;;;;;;;;340383;28;1473;-74
2021/11/10 00:00:21;;;;;;;;;;;;;;;;;;340513;29;859;-75
2021/11/10 00:00:31;;;;;;;;;;;;;;;;;;340355;29;1549;-79
2021/11/10 00:00:42;;;;;;;;;;;;;;;;;;337636;29;1391;-80
2021/11/10 00:00:55;;;;;;;;;;;;;;;;;;339084;29;1217;-78
2021/11/10 00:01:06;;;;;;;;;;;;;;;;;;339194;29;935;-76
2021/11/10 00:01:16;;;;;;;;;;;;;;;;;;339119;29;882;-75
2021/11/10 00:01:26;;;;;;;;;;;;;;;;;;342847;28;1236;-77
2021/11/10 00:01:37;;;;;;;;;;;;;;;;;;341720;29;798;-79
2021/11/10 00:01:49;;;;;;;;;;;;;;;;;;341652;29;1698;-78
2021/11/10 00:02:05;;;;;;;;;;;;;;;;;;341699;29;1210;-75
2021/11/10 00:02:15;;;;;;;;;;;;;;;;;;341840;29;807;-75
2021/11/10 00:02:26;;;;;;;;;;;;;;;;;;341837;29;867;-75
2021/11/10 00:02:36;;;;;;;;;;;;;;;;;;339103;29;1347;-74
2021/11/10 00:02:46;;;;;;;;;;;;;;;;;;339010;29;1193;-74
2021/11/10 00:03:03;;;;;;;;;;;;;;;;;;338914;29;1373;-78
2021/11/10 00:03:13;;;;;;;;;;;;;;;;;;339159;29;981;-78
2021/11/10 00:03:24;;;;;;;;;;;;;;;;;;339086;29;982;-79
2021/11/10 00:03:34;;;;;;;;;;;;;;;;;;340486;29;965;-78
2021/11/10 00:03:44;;;;;;;;;;;;;;;;;;339971;29;1338;-78
2021/11/10 00:03:55;;;;;;;;;;;;;;;;;;340400;29;1422;-77
2021/11/10 00:04:05;;;;;;;;;;;;;;;;;;340450;29;950;-76
2021/11/10 00:04:22;;;;;;;;;;;;;;;;;;340487;29;887;-78
2021/11/10 00:04:33;;;;;;;;;;;;;;;;;;341219;29;1004;-75
2021/11/10 00:04:50;;;;;;;;;;;;;;;;;;341852;29;862;-75
2021/11/10 00:05:00;;;;;;;;;;;;;;;;;;341273;29;927;-78
2021/11/10 00:05:11;;;;;;;;;;;;;;;;;;341807;29;867;-77
2021/11/10 00:05:48;;;;;;;;;;;;;;;;;;344462;28;919;-78
2021/11/10 00:05:58;;;;;;;;;;;;;;;;;;344364;28;997;-76
2021/11/10 00:06:08;;;;;;;;;;;;;;;;;;343115;28;823;-79
2021/11/10 00:06:24;;;;;;;;;;;;;;;;;;341726;29;1228;-78
2021/11/10 00:06:35;;;;;;;;;;;;;;;;;;341848;29;890;-79
2021/11/10 00:06:45;;;;;;;;;;;;;;;;;;341867;29;874;-77
2021/11/10 00:06:56;;;;;;;;;;;;;;;;;;341734;29;1497;-79
2021/11/10 00:07:07;;;;;;;;;;;;;;;;;;340380;29;1157;-79
2021/11/10 00:07:17;;;;;;;;;;;;;;;;;;340399;29;807;-78
2021/11/10 00:07:27;;;;;;;;;;;;;;;;;;340451;29;1388;-76
2021/11/10 00:07:38;;;;;;;;;;;;;;;;;;342614;28;1031;-76
2021/11/10 00:07:48;;;;;;;;;;;;;;;;;;341718;29;1416;-79
2021/11/10 00:07:59;;;;;;;;;;;;;;;;;;341706;29;1036;-80
2021/11/10 00:08:09;;;;;;;;;;;;;;;;;;341599;29;1340;-78
2021/11/10 00:08:20;;;;;;;;;;;;;;;;;;341826;29;819;-78
2021/11/10 00:08:30;;;;;;;;;;;;;;;;;;341690;29;1483;-79
2021/11/10 00:08:41;;;;;;;;;;;;;;;;;;342968;28;1248;-78
2021/11/10 00:08:51;;;;;;;;;;;;;;;;;;341777;29;799;-78
2021/11/10 00:09:04;;;;;;;;;;;;;;;;;;341845;29;910;-78
2021/11/10 00:09:15;;;;;;;;;;;;;;;;;;342754;28;1337;-79
2021/11/10 00:09:25;;;;;;;;;;;;;;;;;;343152;28;815;-78
2021/11/10 00:10:03;;;;;;;;;;;;;;;;;;343021;28;1319;-79
2021/11/10 00:10:19;;;;;;;;;;;;;;;;;;342986;28;1307;-77
2021/11/10 00:10:30;;;;;;;;;;;;;;;;;;343956;28;1078;-79
2021/11/10 00:10:40;;;;;;;;;;;;;;;;;;344441;28;921;-78
2021/11/10 00:10:51;;;;;;;;;;;;;;;;;;341914;28;1564;-78
2021/11/10 00:11:01;;;;;;;;;;;;;;;;;;341864;29;803;-77
2021/11/10 00:11:11;;;;;;;;;;;;;;;;;;343061;28;1488;-78
2021/11/10 00:11:22;;;;;;;;;;;;;;;;;;342721;28;922;-78
2021/11/10 00:11:33;;;;;;;;;;;;;;;;;;342962;28;1168;-79
2021/11/10 00:11:43;;;;;;;;;;;;;;;;;;341743;29;835;-79
2021/11/10 00:11:54;;;;;;;;;;;;;;;;;;341600;29;1887;-79
2021/11/10 00:12:04;;;;;;;;;;;;;;;;;;341748;29;989;-79
2021/11/10 00:12:15;;;;;;;;;;;;;;;;;;340441;29;950;-78
2021/11/10 00:12:26;;;;;;;;;;;;;;;;;;339029;29;1336;-78
2021/11/10 00:12:37;;;;;;;;;;;;;;;;;;340351;29;1202;-79
2021/11/10 00:12:47;;;;;;;;;;;;;;;;;;340471;29;803;-76
2021/11/10 00:13:33;;;;;;;;;;;;;;;;;;339038;29;1378;-77
2021/11/10 00:13:44;;;;;;;;;;;;;;;;;;339108;29;1583;-79
2021/11/10 00:13:54;;;;;;;;;;;;;;;;;;339115;29;1293;-78
2021/11/10 00:14:05;;;;;;;;;;;;;;;;;;340229;29;1476;-78
2021/11/10 00:14:22;;;;;;;;;;;;;;;;;;340441;29;1021;-78
2021/11/10 00:14:32;;;;;;;;;;;;;;;;;;341044;29;982;-76
2021/11/10 00:14:42;;;;;;;;;;;;;;;;;;340973;29;772;-80
2021/11/10 00:14:53;;;;;;;;;;;;;;;;;;342088;28;1402;-79
2021/11/10 00:15:04;;;;;;;;;;;;;;;;;;343130;28;1025;-76
2021/11/10 00:15:14;;;;;;;;;;;;;;;;;;343055;28;973;-78
2021/11/10 00:15:25;;;;;;;;;;;;;;;;;;343034;28;1015;-78
2021/11/10 00:15:35;;;;;;;;;;;;;;;;;;344414;28;1551;-77
2021/11/10 00:15:46;;;;;;;;;;;;;;;;;;344348;28;1405;-78
2021/11/10 00:15:57;;;;;;;;;;;;;;;;;;344153;28;1015;-77
2021/11/10 00:16:22;;;;;;;;;;;;;;;;;;344478;28;859;-78
2021/11/10 00:17:06;;;;;;;;;;;;;;;;;;344319;28;822;-75
2021/11/10 00:17:17;;;;;;;;;;;;;;;;;;344389;28;779;-76
2021/11/10 00:17:28;;;;;;;;;;;;;;;;;;344487;28;980;-78
2021/11/10 00:17:47;;;;;;;;;;;;;;;;;;344639;28;830;-78
2021/11/10 00:18:04;;;;;;;;;;;;;;;;;;344316;28;1348;-79
2021/11/10 00:18:15;;;;;;;;;;;;;;;;;;344291;28;918;-75
2021/11/10 00:18:29;;;;;;;;;;;;;;;;;;344406;28;938;-74
2021/11/10 00:18:45;;;;;;;;;;;;;;;;;;344467;28;724;-75
2021/11/10 00:18:56;;;;;;;;;;;;;;;;;;344469;28;790;-78
2021/11/10 00:19:06;;;;;;;;;;;;;;;;;;344366;28;930;-78
2021/11/10 00:19:17;;;;;;;;;;;;;;;;;;342904;28;866;-77
2021/11/10 00:19:27;;;;;;;;;;;;;;;;;;342856;28;928;-78
2021/11/10 00:19:38;;;;;;;;;;;;;;;;;;340559;29;1399;-79
2021/11/10 00:19:48;;;;;;;;;;;;;;;;;;340482;29;971;-75
2021/11/10 00:19:59;;;;;;;;;;;;;;;;;;343024;28;1388;-78
2021/11/10 00:20:36;;;;;;;;;;;;;;;;;;343168;28;890;-78
2021/11/10 00:20:46;;;;;;;;;;;;;;;;;;342906;28;1141;-77
2021/11/10 00:21:03;;;;;;;;;;;;;;;;;;341714;29;1166;-78
2021/11/10 00:21:20;;;;;;;;;;;;;;;;;;341556;29;1280;-77
2021/11/10 00:21:31;;;;;;;;;;;;;;;;;;341640;29;1422;-75
2021/11/10 00:21:41;;;;;;;;;;;;;;;;;;341794;29;819;-77
2021/11/10 00:21:52;;;;;;;;;;;;;;;;;;341754;29;910;-77
2021/11/10 00:22:02;;;;;;;;;;;;;;;;;;341741;29;882;-78
2021/11/10 00:22:12;;;;;;;;;;;;;;;;;;341710;29;1003;-77
2021/11/10 00:22:35;;;;;;;;;;;;;;;;;;341686;29;998;-78
2021/11/10 00:22:51;;;;;;;;;;;;;;;;;;340414;29;1326;-78
2021/11/10 00:23:01;;;;;;;;;;;;;;;;;;340470;29;867;-78
2021/11/10 00:23:12;;;;;;;;;;;;;;;;;;340483;29;851;-77
2021/11/10 00:23:23;;;;;;;;;;;;;;;;;;341354;29;1052;-78
2021/11/10 00:23:33;;;;;;;;;;;;;;;;;;341658;29;1213;-78
2021/11/10 00:23:44;;;;;;;;;;;;;;;;;;341670;28;867;-78
2021/11/10 00:24:21;;;;;;;;;;;;;;;;;;341780;29;990;-75
2021/11/10 00:24:31;;;;;;;;;;;;;;;;;;341652;29;1363;-78
2021/11/10 00:24:47;;;;;;;;;;;;;;;;;;342423;28;843;-78
2021/11/10 00:24:58;;;;;;;;;;;;;;;;;;343797;28;974;-78
2021/11/10 00:25:09;;;;;;;;;;;;;;;;;;344372;28;1416;-78
2021/11/10 00:25:19;;;;;;;;;;;;;;;;;;342888;28;1449;-78
2021/11/10 00:25:30;;;;;;;;;;;;;;;;;;343088;28;970;-77
2021/11/10 00:25:40;;;;;;;;;;;;;;;;;;343113;28;918;-78
2021/11/10 00:25:51;;;;;;;;;;;;;;;;;;343175;28;751;-78
2021/11/10 00:26:01;;;;;;;;;;;;;;;;;;342575;28;1000;-77
2021/11/10 00:26:12;;;;;;;;;;;;;;;;;;340269;29;1213;-78
2021/11/10 00:26:23;;;;;;;;;;;;;;;;;;341646;29;1295;-77
2021/11/10 00:26:33;;;;;;;;;;;;;;;;;;341463;29;983;-78
2021/11/10 00:26:44;;;;;;;;;;;;;;;;;;341648;29;1145;-76
2021/11/10 00:26:54;;;;;;;;;;;;;;;;;;341661;29;1225;-77
2021/11/10 00:27:05;;;;;;;;;;;;;;;;;;341593;29;1667;-78
2021/11/10 00:27:15;;;;;;;;;;;;;;;;;;340461;29;1582;-78
2021/11/10 00:27:26;;;;;;;;;;;;;;;;;;340453;29;839;-78
2021/11/10 00:27:51;;;;;;;;;;;;;;;;;;340489;29;894;-78
2021/11/10 00:28:02;;;;;;;;;;;;;;;;;;341741;29;1451;-78
2021/11/10 00:28:13;;;;;;;;;;;;;;;;;;341705;29;998;-78
2021/11/10 00:28:23;;;;;;;;;;;;;;;;;;341654;29;986;-79
2021/11/10 00:28:45;;;;;;;;;;;;;;;;;;343026;28;918;-79
2021/11/10 00:28:56;;;;;;;;;;;;;;;;;;343031;28;1302;-77
2021/11/10 00:29:06;;;;;;;;;;;;;;;;;;343087;28;957;-78
2021/11/10 00:29:16;;;;;;;;;;;;;;;;;;344390;28;910;-78
2021/11/10 00:29:27;;;;;;;;;;;;;;;;;;345752;28;1032;-78
2021/11/10 00:29:37;;;;;;;;;;;;;;;;;;345767;28;993;-78
2021/11/10 00:29:48;;;;;;;;;;;;;;;;;;343022;28;1299;-79
2021/11/10 00:29:59;;;;;;;;;;;;;;;;;;341055;29;933;-80
2021/11/10 00:30:09;;;;;;;;;;;;;;;;;;340478;29;961;-79
2021/11/10 00:30:46;;;;;;;;;;;;;;;;;;340393;29;1222;-79
2021/11/10 00:30:57;;;;;;;;;;;;;;;;;;340432;29;990;-80
2021/11/10 00:31:08;;;;;;;;;;;;;;;;;;340481;29;986;-80
2021/11/10 00:31:18;;;;;;;;;;;;;;;;;;340365;29;835;-79
2021/11/10 00:31:29;;;;;;;;;;;;;;;;;;340448;29;997;-79
2021/11/10 00:31:39;;;;;;;;;;;;;;;;;;339181;29;1429;-78
2021/11/10 00:31:50;;;;;;;;;;;;;;;;;;341843;29;890;-79
2021/11/10 00:32:00;;;;;;;;;;;;;;;;;;342986;28;1902;-80
2021/11/10 00:32:11;;;;;;;;;;;;;;;;;;341647;29;1303;-78
2021/11/10 00:32:21;;;;;;;;;;;;;;;;;;340475;29;954;-79
2021/11/10 00:32:32;;;;;;;;;;;;;;;;;;341681;29;1295;-79
2021/11/10 00:32:42;;;;;;;;;;;;;;;;;;342698;28;928;-80
2021/11/10 00:33:24;;;;;;;;;;;;;;;;;;341686;29;1007;-79
2021/11/10 00:33:34;;;;;;;;;;;;;;;;;;341587;29;1297;-79
2021/11/10 00:33:45;;;;;;;;;;;;;;;;;;343014;28;1258;-79
2021/11/10 00:33:55;;;;;;;;;;;;;;;;;;343009;28;1479;-80
2021/11/10 00:34:06;;;;;;;;;;;;;;;;;;343098;28;942;-79
2021/11/10 00:34:31;;;;;;;;;;;;;;;;;;342702;28;1063;-80
2021/11/10 00:34:48;;;;;;;;;;;;;;;;;;342987;28;1004;-79
2021/11/10 00:34:58;;;;;;;;;;;;;;;;;;340383;29;1305;-79
2021/11/10 00:35:34;;;;;;;;;;;;;;;;;;340338;29;1162;-78
2021/11/10 00:35:44;;;;;;;;;;;;;;;;;;340476;29;894;-79
2021/11/10 00:36:10;;;;;;;;;;;;;;;;;;341253;29;1206;-79
2021/11/10 00:36:21;;;;;;;;;;;;;;;;;;341745;29;1033;-76
2021/11/10 00:36:47;;;;;;;;;;;;;;;;;;341777;29;965;-77
2021/11/10 00:36:57;;;;;;;;;;;;;;;;;;342775;28;1014;-79
2021/11/10 00:37:08;;;;;;;;;;;;;;;;;;341581;29;1459;-77
2021/11/10 00:37:18;;;;;;;;;;;;;;;;;;341539;29;1405;-78
2021/11/10 00:37:29;;;;;;;;;;;;;;;;;;342101;28;847;-78
2021/11/10 00:37:39;;;;;;;;;;;;;;;;;;341638;29;1261;-80
2021/11/10 00:37:49;;;;;;;;;;;;;;;;;;341737;29;847;-79
2021/11/10 00:38:00;;;;;;;;;;;;;;;;;;338991;29;1345;-79
2021/11/10 00:38:10;;;;;;;;;;;;;;;;;;340524;29;824;-79
2021/11/10 00:39:19;;;;;;;;;;;;;;;;;;340250;29;1020;-78
2021/11/10 00:40:21;;;;;;;;;;;;;;;;;;345511;28;830;-78
2021/11/10 00:40:31;;;;;;;;;;;;;;;;;;342511;28;1378;-79
2021/11/10 00:40:41;;;;;;;;;;;;;;;;;;342922;28;1173;-79
2021/11/10 00:40:52;;;;;;;;;;;;;;;;;;343068;28;1009;-79
2021/11/10 00:41:18;;;;;;;;;;;;;;;;;;342985;28;1001;-79
2021/11/10 00:41:34;;;;;;;;;;;;;;;;;;342985;28;957;-78
2021/11/10 00:41:45;;;;;;;;;;;;;;;;;;343075;28;870;-79
2021/11/10 00:41:55;;;;;;;;;;;;;;;;;;342998;28;1217;-80
2021/11/10 00:42:05;;;;;;;;;;;;;;;;;;341697;29;1484;-79
2021/11/10 00:42:16;;;;;;;;;;;;;;;;;;341792;29;923;-79
2021/11/10 00:42:26;;;;;;;;;;;;;;;;;;340391;29;1423;-79
2021/11/10 00:42:37;;;;;;;;;;;;;;;;;;340446;29;922;-79
2021/11/10 00:42:47;;;;;;;;;;;;;;;;;;340908;29;930;-79
2021/11/10 00:42:57;;;;;;;;;;;;;;;;;;340307;29;1424;-78
2021/11/10 00:43:08;;;;;;;;;;;;;;;;;;340441;29;808;-79
2021/11/10 00:43:18;;;;;;;;;;;;;;;;;;338970;29;1376;-79
2021/11/10 00:43:29;;;;;;;;;;;;;;;;;;338751;29;963;-79
2021/11/10 00:44:05;;;;;;;;;;;;;;;;;;339119;29;836;-77
2021/11/10 00:44:15;;;;;;;;;;;;;;;;;;339144;29;852;-79
2021/11/10 00:44:26;;;;;;;;;;;;;;;;;;340247;29;962;-79
2021/11/10 00:44:36;;;;;;;;;;;;;;;;;;340402;29;910;-79
2021/11/10 00:44:47;;;;;;;;;;;;;;;;;;340488;29;851;-78
2021/11/10 00:44:57;;;;;;;;;;;;;;;;;;342625;28;1013;-79
2021/11/10 00:45:08;;;;;;;;;;;;;;;;;;341636;29;1170;-78
2021/11/10 00:45:40;;;;;;;;;;;;;;;;;;343702;28;1082;-79
2021/11/10 00:45:50;;;;;;;;;;;;;;;;;;343100;28;815;-79
2021/11/10 00:46:01;;;;;;;;;;;;;;;;;;340063;29;1338;-78
2021/11/10 00:46:11;;;;;;;;;;;;;;;;;;341764;29;938;-79
2021/11/10 00:46:21;;;;;;;;;;;;;;;;;;341777;29;919;-78
2021/11/10 00:46:32;;;;;;;;;;;;;;;;;;341737;29;843;-77
2021/11/10 00:46:43;;;;;;;;;;;;;;;;;;341782;29;918;-79
2021/11/10 00:46:53;;;;;;;;;;;;;;;;;;341743;29;922;-78
2021/11/10 00:47:03;;;;;;;;;;;;;;;;;;341596;29;1416;-78
2021/11/10 00:47:20;;;;;;;;;;;;;;;;;;341739;29;804;-77
2021/11/10 00:47:36;;;;;;;;;;;;;;;;;;341796;29;981;-80
2021/11/10 00:48:13;;;;;;;;;;;;;;;;;;344335;28;986;-79
2021/11/10 00:48:24;;;;;;;;;;;;;;;;;;344079;28;1410;-79
2021/11/10 00:48:55;;;;;;;;;;;;;;;;;;343001;28;1560;-78
2021/11/10 00:49:12;;;;;;;;;;;;;;;;;;343106;28;1052;-79
2021/11/10 00:49:22;;;;;;;;;;;;;;;;;;342783;28;1398;-78
2021/11/10 00:49:32;;;;;;;;;;;;;;;;;;343066;28;839;-78
2021/11/10 00:49:43;;;;;;;;;;;;;;;;;;343668;28;981;-79
2021/11/10 00:49:53;;;;;;;;;;;;;;;;;;344449;28;878;-77
2021/11/10 00:50:04;;;;;;;;;;;;;;;;;;344076;28;1005;-78
2021/11/10 00:50:41;;;;;;;;;;;;;;;;;;344407;28;1025;-79
2021/11/10 00:50:51;;;;;;;;;;;;;;;;;;344477;28;834;-78
2021/11/10 00:51:01;;;;;;;;;;;;;;;;;;342954;28;1335;-79
2021/11/10 00:51:12;;;;;;;;;;;;;;;;;;343066;28;993;-79
2021/11/10 00:51:25;;;;;;;;;;;;;;;;;;341670;29;768;-79
2021/11/10 00:52:08;;;;;;;;;;;;;;;;;;341752;29;827;-78
2021/11/10 00:52:18;;;;;;;;;;;;;;;;;;341736;29;945;-77
2021/11/10 00:52:29;;;;;;;;;;;;;;;;;;341756;29;800;-78
2021/11/10 00:52:39;;;;;;;;;;;;;;;;;;340181;29;1253;-79
2021/11/10 00:52:50;;;;;;;;;;;;;;;;;;341505;29;1496;-79
2021/11/10 00:53:02;;;;;;;;;;;;;;;;;;341739;29;977;-79
2021/11/10 00:53:13;;;;;;;;;;;;;;;;;;341758;29;998;-79
2021/11/10 00:53:30;;;;;;;;;;;;;;;;;;341752;29;998;-79
2021/11/10 00:53:40;;;;;;;;;;;;;;;;;;341691;29;942;-77
2021/11/10 00:53:51;;;;;;;;;;;;;;;;;;341609;29;1593;-79
2021/11/10 00:54:01;;;;;;;;;;;;;;;;;;341637;29;1072;-79
2021/11/10 00:54:12;;;;;;;;;;;;;;;;;;342959;28;946;-77
2021/11/10 00:54:48;;;;;;;;;;;;;;;;;;343987;28;827;-79
2021/11/10 00:54:59;;;;;;;;;;;;;;;;;;344417;28;1028;-76
2021/11/10 00:55:09;;;;;;;;;;;;;;;;;;344394;28;977;-77
2021/11/10 00:55:20;;;;;;;;;;;;;;;;;;342909;28;1374;-78
2021/11/10 00:55:30;;;;;;;;;;;;;;;;;;341713;29;1483;-78
2021/11/10 00:55:41;;;;;;;;;;;;;;;;;;339165;29;796;-78
2021/11/10 00:55:52;;;;;;;;;;;;;;;;;;340414;29;986;-79
2021/11/10 00:56:02;;;;;;;;;;;;;;;;;;341723;29;978;-78
2021/11/10 00:56:13;;;;;;;;;;;;;;;;;;341779;29;938;-79
2021/11/10 00:56:23;;;;;;;;;;;;;;;;;;341739;29;946;-78
2021/11/10 00:56:34;;;;;;;;;;;;;;;;;;341720;29;955;-79
2021/11/10 00:56:44;;;;;;;;;;;;;;;;;;343091;28;926;-79
2021/11/10 00:56:55;;;;;;;;;;;;;;;;;;343040;28;942;-79
2021/11/10 00:57:06;;;;;;;;;;;;;;;;;;341524;29;1241;-78
2021/11/10 00:57:16;;;;;;;;;;;;;;;;;;341644;29;942;-79
2021/11/10 00:57:26;;;;;;;;;;;;;;;;;;342521;28;980;-80
2021/11/10 00:57:37;;;;;;;;;;;;;;;;;;343082;28;886;-80
2021/11/10 00:57:47;;;;;;;;;;;;;;;;;;343134;28;831;-80
2021/11/10 00:57:58;;;;;;;;;;;;;;;;;;343048;28;741;-79
2021/11/10 00:58:09;;;;;;;;;;;;;;;;;;343093;28;1019;-79
2021/11/10 00:58:19;;;;;;;;;;;;;;;;;;343060;28;946;-79
2021/11/10 00:58:29;;;;;;;;;;;;;;;;;;342487;28;1020;-79
2021/11/10 00:58:40;;;;;;;;;;;;;;;;;;341754;29;985;-79
2021/11/10 00:58:50;;;;;;;;;;;;;;;;;;341602;29;915;-80
2021/11/10 00:59:01;;;;;;;;;;;;;;;;;;342132;28;1514;-79
2021/11/10 00:59:11;;;;;;;;;;;;;;;;;;341194;29;1538;-79
2021/11/10 00:59:21;;;;;;;;;;;;;;;;;;341642;29;886;-77
2021/11/10 00:59:32;;;;;;;;;;;;;;;;;;341616;29;1416;-79
2021/11/10 00:59:42;;;;;;;;;;;;;;;;;;340365;29;1121;-80
2021/11/10 00:59:53;;;;;;;;;;;;;;;;;;341634;29;1312;-80
2021/11/10 01:00:05;;;;;;;;;;;;;;;;;;341697;29;1033;-79
2021/11/10 01:00:16;;;;;;;;;;;;;;;;;;341628;29;1384;-79
2021/11/10 01:00:26;;;;;;;;;;;;;;;;;;340304;29;1613;-79
2021/11/10 01:00:37;;;;;;;;;;;;;;;;;;340413;29;970;-79
2021/11/10 01:00:47;;;;;;;;;;;;;;;;;;340393;29;978;-80
2021/11/10 01:00:58;;;;;;;;;;;;;;;;;;340101;29;1134;-79
2021/11/10 01:01:08;;;;;;;;;;;;;;;;;;340452;29;902;-79
2021/11/10 01:01:19;;;;;;;;;;;;;;;;;;340349;29;819;-79
2021/11/10 01:01:55;;;;;;;;;;;;;;;;;;341760;29;894;-79
2021/11/10 01:02:06;;;;;;;;;;;;;;;;;;343080;28;965;-79
2021/11/10 01:02:16;;;;;;;;;;;;;;;;;;344318;28;1235;-78
2021/11/10 01:02:27;;;;;;;;;;;;;;;;;;345676;28;842;-78
2021/11/10 01:02:37;;;;;;;;;;;;;;;;;;344302;28;1296;-79
2021/11/10 01:02:48;;;;;;;;;;;;;;;;;;343099;28;930;-78
2021/11/10 01:02:58;;;;;;;;;;;;;;;;;;341752;28;1614;-79
2021/11/10 01:03:09;;;;;;;;;;;;;;;;;;340092;29;1248;-80
2021/11/10 01:03:20;;;;;;;;;;;;;;;;;;340339;29;835;-79
2021/11/10 01:03:45;;;;;;;;;;;;;;;;;;340422;29;846;-80
2021/11/10 01:04:02;;;;;;;;;;;;;;;;;;340451;29;823;-79
2021/11/10 01:04:13;;;;;;;;;;;;;;;;;;341526;29;963;-79
2021/11/10 01:04:24;;;;;;;;;;;;;;;;;;341644;29;1005;-80
2021/11/10 01:04:34;;;;;;;;;;;;;;;;;;341730;29;902;-79
2021/11/10 01:04:45;;;;;;;;;;;;;;;;;;342450;28;903;-80
2021/11/10 01:04:56;;;;;;;;;;;;;;;;;;342148;28;1625;-78
2021/11/10 01:05:06;;;;;;;;;;;;;;;;;;342241;28;1298;-79
2021/11/10 01:05:17;;;;;;;;;;;;;;;;;;340297;28;1200;-80
2021/11/10 01:05:28;;;;;;;;;;;;;;;;;;342907;28;1437;-79
2021/11/10 01:06:04;;;;;;;;;;;;;;;;;;341700;29;970;-79
2021/11/10 01:06:14;;;;;;;;;;;;;;;;;;341634;29;1295;-79
2021/11/10 01:06:25;;;;;;;;;;;;;;;;;;341735;29;847;-80
2021/11/10 01:06:35;;;;;;;;;;;;;;;;;;341454;29;1042;-80
2021/11/10 01:06:46;;;;;;;;;;;;;;;;;;341742;29;993;-79
2021/11/10 01:06:56;;;;;;;;;;;;;;;;;;341713;29;982;-79
2021/11/10 01:07:06;;;;;;;;;;;;;;;;;;341695;29;1516;-79
2021/11/10 01:07:17;;;;;;;;;;;;;;;;;;341544;29;1276;-79
2021/11/10 01:07:31;;;;;;;;;;;;;;;;;;340254;29;1222;-79
2021/11/10 01:07:48;;;;;;;;;;;;;;;;;;340290;29;1184;-79
2021/11/10 01:07:58;;;;;;;;;;;;;;;;;;340351;29;1014;-79
2021/11/10 01:08:35;;;;;;;;;;;;;;;;;;341717;29;890;-79
2021/11/10 01:08:45;;;;;;;;;;;;;;;;;;340371;29;1302;-79
2021/11/10 01:08:56;;;;;;;;;;;;;;;;;;340366;29;882;-79
2021/11/10 01:09:07;;;;;;;;;;;;;;;;;;340314;29;939;-79
2021/11/10 01:09:17;;;;;;;;;;;;;;;;;;338838;29;1395;-78
2021/11/10 01:09:28;;;;;;;;;;;;;;;;;;339008;29;935;-78
2021/11/10 01:09:43;;;;;;;;;;;;;;;;;;340288;29;914;-79
2021/11/10 01:09:58;;;;;;;;;;;;;;;;;;340431;29;994;-80
2021/11/10 01:10:36;;;;;;;;;;;;;;;;;;343008;28;1331;-79
2021/11/10 01:11:12;;;;;;;;;;;;;;;;;;343917;28;855;-79
2021/11/10 01:11:22;;;;;;;;;;;;;;;;;;342960;28;921;-79
2021/11/10 01:11:33;;;;;;;;;;;;;;;;;;342022;28;1276;-79
2021/11/10 01:11:44;;;;;;;;;;;;;;;;;;342542;28;1417;-77
2021/11/10 01:11:54;;;;;;;;;;;;;;;;;;341666;29;1895;-79
2021/11/10 01:12:48;;;;;;;;;;;;;;;;;;343072;28;792;-79
2021/11/10 01:12:58;;;;;;;;;;;;;;;;;;341620;29;1267;-79
2021/11/10 01:13:09;;;;;;;;;;;;;;;;;;341688;29;1163;-79
2021/11/10 01:13:20;;;;;;;;;;;;;;;;;;341662;29;938;-78
2021/11/10 01:13:30;;;;;;;;;;;;;;;;;;340302;29;1377;-78
2021/11/10 01:13:41;;;;;;;;;;;;;;;;;;340430;29;974;-79
2021/11/10 01:13:51;;;;;;;;;;;;;;;;;;340465;29;824;-79
2021/11/10 01:14:01;;;;;;;;;;;;;;;;;;339006;29;1175;-78
2021/11/10 01:14:13;;;;;;;;;;;;;;;;;;339142;29;895;-79
2021/11/10 01:14:23;;;;;;;;;;;;;;;;;;338965;29;973;-77
2021/11/10 01:14:34;;;;;;;;;;;;;;;;;;340087;29;1363;-78
2021/11/10 01:14:44;;;;;;;;;;;;;;;;;;340191;29;1296;-79
2021/11/10 01:15:01;;;;;;;;;;;;;;;;;;341784;29;1056;-79
2021/11/10 01:15:11;;;;;;;;;;;;;;;;;;341787;29;918;-77
2021/11/10 01:15:22;;;;;;;;;;;;;;;;;;341591;29;998;-76
2021/11/10 01:15:34;;;;;;;;;;;;;;;;;;341774;29;807;-79
2021/11/10 01:15:45;;;;;;;;;;;;;;;;;;340313;29;1276;-80
2021/11/10 01:15:55;;;;;;;;;;;;;;;;;;340746;29;1030;-80
2021/11/10 01:16:05;;;;;;;;;;;;;;;;;;341972;28;1339;-79
2021/11/10 01:16:42;;;;;;;;;;;;;;;;;;343012;28;1061;-79
2021/11/10 01:16:53;;;;;;;;;;;;;;;;;;341592;29;1137;-77
2021/11/10 01:17:03;;;;;;;;;;;;;;;;;;341615;29;950;-78
2021/11/10 01:17:14;;;;;;;;;;;;;;;;;;341700;29;823;-79
2021/11/10 01:17:24;;;;;;;;;;;;;;;;;;341727;29;902;-79
2021/11/10 01:17:36;;;;;;;;;;;;;;;;;;341586;29;1508;-78
2021/11/10 01:17:46;;;;;;;;;;;;;;;;;;343019;28;974;-78
2021/11/10 01:17:57;;;;;;;;;;;;;;;;;;342923;28;919;-78
2021/11/10 01:18:07;;;;;;;;;;;;;;;;;;341724;29;969;-79
2021/11/10 01:18:17;;;;;;;;;;;;;;;;;;341766;29;835;-79
2021/11/10 01:18:28;;;;;;;;;;;;;;;;;;340418;29;919;-78
2021/11/10 01:18:38;;;;;;;;;;;;;;;;;;340411;29;878;-79
2021/11/10 01:18:49;;;;;;;;;;;;;;;;;;341022;29;840;-80
2021/11/10 01:18:59;;;;;;;;;;;;;;;;;;340309;29;1202;-79
2021/11/10 01:19:09;;;;;;;;;;;;;;;;;;340325;29;970;-78
2021/11/10 01:19:20;;;;;;;;;;;;;;;;;;340292;29;997;-77
2021/11/10 01:19:31;;;;;;;;;;;;;;;;;;340837;29;1003;-79
2021/11/10 01:19:41;;;;;;;;;;;;;;;;;;341471;29;1321;-78
2021/11/10 01:19:51;;;;;;;;;;;;;;;;;;340379;29;981;-79
2021/11/10 01:20:02;;;;;;;;;;;;;;;;;;340892;29;930;-79
2021/11/10 01:20:13;;;;;;;;;;;;;;;;;;341758;29;816;-79
2021/11/10 01:20:50;;;;;;;;;;;;;;;;;;341528;29;1140;-79
2021/11/10 01:21:00;;;;;;;;;;;;;;;;;;341742;29;799;-77
2021/11/10 01:21:11;;;;;;;;;;;;;;;;;;340440;29;819;-80
2021/11/10 01:21:21;;;;;;;;;;;;;;;;;;341499;29;799;-76
2021/11/10 01:21:32;;;;;;;;;;;;;;;;;;341768;29;850;-79
2021/11/10 01:21:42;;;;;;;;;;;;;;;;;;342996;28;866;-78
2021/11/10 01:21:52;;;;;;;;;;;;;;;;;;342653;28;1155;-79
2021/11/10 01:22:03;;;;;;;;;;;;;;;;;;341556;29;1249;-79
2021/11/10 01:22:14;;;;;;;;;;;;;;;;;;341708;29;818;-79
2021/11/10 01:22:24;;;;;;;;;;;;;;;;;;340373;28;1307;-79
2021/11/10 01:22:35;;;;;;;;;;;;;;;;;;341625;29;1263;-79
2021/11/10 01:22:45;;;;;;;;;;;;;;;;;;341744;29;977;-80
2021/11/10 01:22:56;;;;;;;;;;;;;;;;;;341685;29;870;-78
2021/11/10 01:23:13;;;;;;;;;;;;;;;;;;341693;29;791;-78
2021/11/10 01:23:23;;;;;;;;;;;;;;;;;;341633;29;1049;-80
2021/11/10 01:23:49;;;;;;;;;;;;;;;;;;341593;29;1149;-78
2021/11/10 01:24:00;;;;;;;;;;;;;;;;;;339102;29;989;-79
2021/11/10 01:24:10;;;;;;;;;;;;;;;;;;338849;29;974;-79
2021/11/10 01:24:30;;;;;;;;;;;;;;;;;;339084;29;460;-79
2021/11/10 01:24:47;;;;;;;;;;;;;;;;;;340163;29;1355;-79
2021/11/10 01:24:58;;;;;;;;;;;;;;;;;;341625;29;1276;-79
2021/11/10 01:25:09;;;;;;;;;;;;;;;;;;341704;29;905;-79
2021/11/10 01:25:20;;;;;;;;;;;;;;;;;;342850;28;1316;-78
2021/11/10 01:25:30;;;;;;;;;;;;;;;;;;343120;28;823;-79
2021/11/10 01:25:41;;;;;;;;;;;;;;;;;;343035;28;822;-80
2021/11/10 01:25:51;;;;;;;;;;;;;;;;;;342977;28;953;-80
2021/11/10 01:26:02;;;;;;;;;;;;;;;;;;343046;28;1036;-80
2021/11/10 01:26:12;;;;;;;;;;;;;;;;;;343046;28;901;-79
2021/11/10 01:26:22;;;;;;;;;;;;;;;;;;342953;28;1198;-80
2021/11/10 01:26:33;;;;;;;;;;;;;;;;;;343068;28;795;-80
2021/11/10 01:26:43;;;;;;;;;;;;;;;;;;340358;29;1309;-79
2021/11/10 01:26:53;;;;;;;;;;;;;;;;;;341631;29;1657;-78
2021/11/10 01:27:04;;;;;;;;;;;;;;;;;;341342;29;1221;-79
2021/11/10 01:27:14;;;;;;;;;;;;;;;;;;342889;28;1193;-80
2021/11/10 01:27:25;;;;;;;;;;;;;;;;;;344239;28;1279;-79
2021/11/10 01:27:36;;;;;;;;;;;;;;;;;;344382;28;795;-79
2021/11/10 01:27:46;;;;;;;;;;;;;;;;;;344201;28;957;-80
2021/11/10 01:28:23;;;;;;;;;;;;;;;;;;340394;29;899;-80
2021/11/10 01:28:33;;;;;;;;;;;;;;;;;;340321;29;839;-80
2021/11/10 01:28:44;;;;;;;;;;;;;;;;;;341593;29;1198;-80
2021/11/10 01:29:12;;;;;;;;;;;;;;;;;;340281;29;1352;-80
2021/11/10 01:29:48;;;;;;;;;;;;;;;;;;340296;29;890;-78
2021/11/10 01:29:59;;;;;;;;;;;;;;;;;;344270;28;1436;-79
2021/11/10 01:30:11;;;;;;;;;;;;;;;;;;344404;28;870;-78
2021/11/10 01:30:21;;;;;;;;;;;;;;;;;;344255;28;977;-78
2021/11/10 01:30:58;;;;;;;;;;;;;;;;;;344377;28;969;-79
2021/11/10 01:31:08;;;;;;;;;;;;;;;;;;342971;28;1142;-79
2021/11/10 01:31:18;;;;;;;;;;;;;;;;;;342960;28;926;-79
2021/11/10 01:31:44;;;;;;;;;;;;;;;;;;343076;28;795;-77
2021/11/10 01:31:55;;;;;;;;;;;;;;;;;;342984;28;1910;-80
2021/11/10 01:32:05;;;;;;;;;;;;;;;;;;343043;28;854;-79
2021/11/10 01:32:16;;;;;;;;;;;;;;;;;;343002;28;962;-79
2021/11/10 01:32:26;;;;;;;;;;;;;;;;;;342965;28;992;-78
2021/11/10 01:32:37;;;;;;;;;;;;;;;;;;344347;28;826;-79
2021/11/10 01:32:48;;;;;;;;;;;;;;;;;;344242;28;1208;-80
2021/11/10 01:32:59;;;;;;;;;;;;;;;;;;342930;28;1407;-80
2021/11/10 01:33:35;;;;;;;;;;;;;;;;;;341611;29;1426;-79
2021/11/10 01:33:48;;;;;;;;;;;;;;;;;;341600;29;1179;-78
2021/11/10 01:34:03;;;;;;;;;;;;;;;;;;341695;29;819;-79
2021/11/10 01:34:13;;;;;;;;;;;;;;;;;;341710;29;942;-79
2021/11/10 01:34:24;;;;;;;;;;;;;;;;;;341604;29;1372;-79
2021/11/10 01:34:34;;;;;;;;;;;;;;;;;;341724;29;981;-79
2021/11/10 01:34:45;;;;;;;;;;;;;;;;;;342408;28;1306;-79
2021/11/10 01:34:55;;;;;;;;;;;;;;;;;;342815;28;1656;-79
2021/11/10 01:35:06;;;;;;;;;;;;;;;;;;341241;29;1365;-79
2021/11/10 01:35:17;;;;;;;;;;;;;;;;;;341593;29;1017;-79
2021/11/10 01:35:53;;;;;;;;;;;;;;;;;;340433;29;823;-79
2021/11/10 01:36:04;;;;;;;;;;;;;;;;;;340394;29;831;-78
2021/11/10 01:36:14;;;;;;;;;;;;;;;;;;340416;29;903;-78
2021/11/10 01:36:30;;;;;;;;;;;;;;;;;;340422;29;910;-79